Time;durP1;ratioP1;P1;durP2;ratioP2;P2;SDS_P1;SDS_P2;PMS_P1;PMS_P2;Temp;Humidity;BMP_temperature;BMP_pressure;BME280_temperature;BME280_humidity;BME280_pressure;Samples;Min_cycle;Max_cycle;Signal;HPM_P1;HPM_P2
2022/12/25 00:00:05;;;;;;;14.13;6.13;;;;;;;9.43;71.74;100214.38;5014042;28;20061;-61
2022/12/25 00:02:32;;;;;;;12.23;4.47;;;;;;;9.53;72.32;100210.53;5015484;28;20057;-60
2022/12/25 00:04:59;;;;;;;13.20;4.57;;;;;;;9.59;73.09;100214.03;5016055;28;20049;-60
2022/12/25 00:07:28;;;;;;;12.98;4.32;;;;;;;9.59;74.43;100217.63;5016039;28;20434;-60
2022/12/25 00:09:55;;;;;;;9.20;3.83;;;;;;;9.63;74.43;100224.19;5016169;28;20061;-60
2022/12/25 00:12:25;;;;;;;8.88;3.80;;;;;;;9.59;75.04;100223.19;5015542;28;20064;-60
2022/12/25 00:14:55;;;;;;;10.52;4.00;;;;;;;9.55;75.43;100227.72;5014414;28;20388;-60
2022/12/25 00:17:23;;;;;;;12.07;3.80;;;;;;;9.69;75.42;100227.69;5015771;28;20061;-60
2022/12/25 00:19:50;;;;;;;11.02;4.32;;;;;;;9.83;73.98;100234.03;5015770;28;20056;-60
2022/12/25 00:22:21;;;;;;;11.93;4.57;;;;;;;9.87;74.65;100236.97;5015157;28;20054;-60
2022/12/25 00:24:50;;;;;;;13.93;5.38;;;;;;;9.92;73.73;100236.88;5014900;28;20050;-60
2022/12/25 00:27:17;;;;;;;11.88;5.78;;;;;;;9.90;73.09;100228.84;5015463;28;20053;-60
2022/12/25 00:29:44;;;;;;;11.60;5.30;;;;;;;9.93;73.37;100233.78;5013845;28;20054;-60
2022/12/25 00:32:12;;;;;;;13.27;5.20;;;;;;;10.01;73.03;100243.31;5014716;28;20057;-60
2022/12/25 00:34:39;;;;;;;11.43;5.25;;;;;;;9.96;72.22;100243.44;5015740;28;20050;-60
2022/12/25 00:37:06;;;;;;;10.05;4.82;;;;;;;9.92;72.47;100245.22;5015176;28;20065;-61
2022/12/25 00:39:33;;;;;;;11.82;4.82;;;;;;;9.98;71.41;100240.34;5015315;28;20057;-60
2022/12/25 00:44:52;;;;;;;9.38;4.47;;;;;;;9.98;71.68;100235.59;4989724;28;20050;-60
2022/12/25 00:47:22;;;;;;;12.75;5.68;;;;;;;10.06;71.71;100237.63;4995309;28;20061;-61
2022/12/25 00:49:49;;;;;;;11.00;4.60;;;;;;;10.03;72.28;100238.25;4998136;28;20049;-60
2022/12/25 00:52:16;;;;;;;10.25;5.22;;;;;;;10.07;71.70;100239.25;5014105;28;20054;-60
2022/12/25 00:54:44;;;;;;;14.23;5.43;;;;;;;10.10;71.69;100227.50;5015404;28;20050;-60
2022/12/25 00:57:16;;;;;;;12.93;4.60;;;;;;;10.11;71.25;100231.94;5014524;28;20050;-60
2022/12/25 00:59:43;;;;;;;9.75;5.07;;;;;;;10.11;71.92;100234.72;4997273;28;20057;-60
2022/12/25 01:02:25;;;;;;;10.50;4.53;;;;;;;10.14;71.18;100239.66;4995105;28;20419;-60
2022/12/25 01:04:55;;;;;;;11.82;4.60;;;;;;;10.19;71.27;100235.91;5000921;28;20056;-61
2022/12/25 01:07:24;;;;;;;10.63;4.68;;;;;;;10.16;71.07;100237.38;5014389;28;20054;-60
2022/12/25 01:12:40;;;;;;;11.57;4.93;;;;;;;10.22;71.37;100231.66;5020540;28;20061;-61
2022/12/25 01:15:10;;;;;;;11.88;4.65;;;;;;;10.11;71.58;100229.16;5001138;28;20065;-60
2022/12/25 01:17:38;;;;;;;11.98;5.35;;;;;;;10.10;71.41;100233.06;4994958;28;20419;-61
2022/12/25 01:20:06;;;;;;;9.13;4.28;;;;;;;10.08;70.90;100227.00;5008391;28;20054;-60
2022/12/25 01:22:36;;;;;;;9.32;4.47;;;;;;;10.12;71.23;100230.81;5013099;28;20058;-61
2022/12/25 01:25:05;;;;;;;16.88;5.57;;;;;;;10.18;71.55;100233.44;5013989;28;20057;-61
2022/12/25 01:27:32;;;;;;;11.18;4.47;;;;;;;10.12;71.22;100236.38;5014172;28;20058;-61
2022/12/25 01:30:01;;;;;;;12.65;4.90;;;;;;;10.13;71.32;100237.19;5012484;28;20060;-60
2022/12/25 01:32:28;;;;;;;9.73;4.78;;;;;;;10.13;70.87;100231.63;5013615;28;20057;-60
2022/12/25 01:34:55;;;;;;;15.45;5.07;;;;;;;10.16;71.06;100236.53;5014460;28;20054;-61
2022/12/25 01:37:23;;;;;;;12.00;4.43;;;;;;;10.24;71.15;100246.09;5012938;28;20064;-60
2022/12/25 01:39:54;;;;;;;10.13;4.00;;;;;;;10.26;70.91;100233.50;4994862;28;20050;-61
2022/12/25 01:42:25;;;;;;;10.10;4.47;;;;;;;10.25;71.60;100240.22;4994440;28;20077;-60
2022/12/25 01:45:43;;;;;;;9.20;4.18;;;;;;;10.35;71.33;100234.41;5006969;28;20053;-60
2022/12/25 01:48:19;;;;;;;7.75;3.88;;;;;;;10.35;71.53;100228.00;4996156;28;20057;-61
2022/12/25 01:50:49;;;;;;;10.70;4.25;;;;;;;10.44;70.96;100237.25;5014089;28;20049;-60
2022/12/25 01:53:16;;;;;;;13.45;5.63;;;;;;;10.37;71.42;100234.06;5013524;28;20080;-61
2022/12/25 01:55:47;;;;;;;10.32;5.60;;;;;;;10.38;71.43;100232.13;5012441;28;20415;-61
2022/12/25 01:58:16;;;;;;;11.02;6.13;;;;;;;10.43;70.39;100218.06;5013369;28;20058;-61
2022/12/25 02:00:46;;;;;;;9.60;5.15;;;;;;;10.45;70.40;100213.00;4995738;28;20050;-60
2022/12/25 02:03:14;;;;;;;14.48;4.97;;;;;;;10.39;71.21;100203.13;4994140;28;20399;-60
2022/12/25 02:05:42;;;;;;;10.07;4.07;;;;;;;10.47;70.84;100208.75;4994251;28;20053;-61
2022/12/25 02:08:12;;;;;;;9.05;4.57;;;;;;;10.53;71.25;100210.25;4993631;28;20057;-60
2022/12/25 02:10:39;;;;;;;10.82;4.32;;;;;;;10.60;71.39;100212.56;4994135;28;20058;-61
2022/12/25 02:13:12;;;;;;;8.48;3.80;;;;;;;10.63;71.68;100211.94;5012241;28;20478;-62
2022/12/25 02:15:48;;;;;;;7.30;4.00;;;;;;;10.69;70.31;100227.38;5005985;28;20490;-61
2022/12/25 02:18:30;;;;;;;12.93;4.38;;;;;;;10.71;71.06;100222.31;5013040;28;20061;-61
2022/12/25 02:21:09;;;;;;;9.98;4.65;;;;;;;10.78;69.79;100216.25;5013195;28;20053;-61
2022/12/25 02:24:02;;;;;;;7.93;4.93;;;;;;;10.80;69.64;100222.31;5013495;28;20054;-61
2022/12/25 02:26:51;;;;;;;6.95;4.00;;;;;;;10.82;70.26;100217.25;5012868;28;20050;-60
2022/12/25 02:29:25;;;;;;;7.60;3.08;;;;;;;10.88;70.85;100226.31;5010750;28;20453;-61
2022/12/25 02:31:59;;;;;;;9.15;3.50;;;;;;;10.88;70.82;100223.50;5012831;28;20053;-60
2022/12/25 02:34:31;;;;;;;5.90;3.05;;;;;;;10.93;70.58;100235.31;5013318;28;20049;-60
2022/12/25 02:37:13;;;;;;;9.57;3.40;;;;;;;10.97;71.24;100233.53;5011746;28;20062;-61
2022/12/25 02:40:00;;;;;;;7.13;2.67;;;;;;;11.07;71.55;100234.38;5013383;28;20054;-60
2022/12/25 03:07:45;;;;;;;6.28;2.10;;;;;;;11.76;70.97;100220.53;5018105;28;20065;-61
2022/12/25 03:13:04;;;;;;;6.07;2.45;;;;;;;11.86;70.56;100205.41;5018221;28;20064;-61
2022/12/25 03:18:24;;;;;;;6.18;2.50;;;;;;;12.00;69.60;100219.22;5017134;28;20068;-60
2022/12/25 03:31:10;;;;;;;5.53;2.30;;;;;;;12.04;69.71;100217.41;5003978;28;20061;-65
2022/12/25 03:32:08;;;;;;;5.30;2.25;;;;;;;12.01;69.36;100217.25;4993028;28;20395;-65
2022/12/25 04:36:15;;;;;;;6.57;2.33;;;;;;;12.41;68.02;100189.06;5020569;28;20049;-63
2022/12/25 04:38:42;;;;;;;7.85;2.55;;;;;;;12.40;68.78;100177.09;5014727;28;20062;-64
2022/12/25 04:41:12;;;;;;;4.85;1.83;;;;;;;12.40;69.06;100171.50;5015244;28;20212;-63
2022/12/25 04:43:40;;;;;;;9.50;2.25;;;;;;;12.49;69.07;100175.06;5006991;28;20061;-64
2022/12/25 04:46:07;;;;;;;4.90;2.00;;;;;;;12.42;69.03;100174.78;5015168;28;20402;-64
2022/12/25 04:48:36;;;;;;;4.68;2.20;;;;;;;12.39;68.56;100173.47;5014378;28;20054;-64
2022/12/25 04:51:14;;;;;;;7.20;2.22;;;;;;;12.36;68.80;100179.72;5014751;28;20060;-64
2022/12/25 04:53:41;;;;;;;6.28;1.95;;;;;;;12.30;68.46;100181.03;5014632;28;20050;-65
2022/12/25 04:56:08;;;;;;;5.35;2.00;;;;;;;12.17;69.33;100177.31;5013823;28;20064;-64
2022/12/25 04:58:37;;;;;;;4.63;1.95;;;;;;;12.18;69.60;100180.94;5014707;28;20056;-65
2022/12/25 05:01:05;;;;;;;7.70;2.28;;;;;;;12.23;69.02;100171.56;5014970;28;20387;-64
2022/12/25 05:03:32;;;;;;;4.43;2.03;;;;;;;12.12;69.53;100171.09;5014639;28;20058;-65
2022/12/25 05:06:01;;;;;;;7.45;2.10;;;;;;;12.17;69.32;100162.53;5002056;28;20122;-64
2022/12/25 05:08:29;;;;;;;5.72;2.10;;;;;;;12.09;69.79;100153.00;4994988;28;20054;-64
2022/12/25 05:10:56;;;;;;;6.72;2.17;;;;;;;12.03;69.64;100151.56;4994888;28;20054;-65
2022/12/25 05:13:24;;;;;;;5.57;2.20;;;;;;;11.98;69.99;100151.75;5008705;28;20073;-64
2022/12/25 05:15:53;;;;;;;4.47;2.15;;;;;;;11.85;70.57;100138.78;4995168;28;20483;-64
2022/12/25 05:18:20;;;;;;;7.50;2.10;;;;;;;11.83;70.18;100157.81;5003412;28;20057;-64
2022/12/25 05:20:54;;;;;;;7.78;2.20;;;;;;;11.67;71.19;100149.94;5013469;28;20060;-65
2022/12/25 05:23:22;;;;;;;8.93;2.65;;;;;;;11.62;71.09;100144.53;5014424;28;20076;-65
2022/12/25 05:25:49;;;;;;;5.07;1.88;;;;;;;11.55;71.73;100139.47;4994279;28;20062;-63
2022/12/25 05:28:19;;;;;;;4.53;1.90;;;;;;;11.49;71.75;100132.41;5005798;28;20052;-64
2022/12/25 05:30:46;;;;;;;5.93;2.00;;;;;;;11.45;71.80;100137.00;5012152;28;20060;-64
2022/12/25 05:33:15;;;;;;;3.85;2.00;;;;;;;11.52;71.77;100133.72;5010933;28;20391;-64
2022/12/25 05:35:42;;;;;;;4.35;2.05;;;;;;;11.50;71.69;100145.19;5012693;28;20064;-64
2022/12/25 05:38:10;;;;;;;4.00;1.73;;;;;;;11.44;72.59;100138.16;5013553;28;20046;-64
2022/12/25 05:40:39;;;;;;;5.10;2.05;;;;;;;11.37;72.61;100138.63;5013591;28;20060;-64
2022/12/25 05:43:07;;;;;;;3.72;1.65;;;;;;;11.41;72.28;100133.25;5013144;28;20050;-64
2022/12/25 05:45:34;;;;;;;5.55;1.58;;;;;;;11.24;72.99;100136.84;5013933;28;20057;-64
2022/12/25 05:48:02;;;;;;;3.75;1.77;;;;;;;11.24;73.54;100131.28;5011269;28;20046;-64
2022/12/25 05:50:30;;;;;;;6.10;2.13;;;;;;;11.22;73.29;100127.19;5013192;28;20649;-63
2022/12/25 05:52:58;;;;;;;3.92;1.67;;;;;;;11.19;73.65;100134.19;5012368;28;20394;-65
2022/12/25 05:55:25;;;;;;;4.55;1.70;;;;;;;11.26;73.19;100122.59;5012856;28;20054;-64
2022/12/25 05:57:53;;;;;;;4.40;1.70;;;;;;;11.30;72.94;100118.81;5005849;28;20053;-65
2022/12/25 06:00:20;;;;;;;5.05;2.13;;;;;;;11.30;72.98;100112.41;5009285;28;20057;-62
2022/12/25 06:02:48;;;;;;;6.93;1.88;;;;;;;11.11;73.87;100110.75;5013197;28;20398;-64
2022/12/25 06:05:15;;;;;;;6.10;1.77;;;;;;;11.19;73.47;100120.25;5011296;28;20054;-65
2022/12/25 06:07:44;;;;;;;2.58;1.38;;;;;;;11.23;73.34;100126.00;5011404;28;20479;-64
2022/12/25 06:10:11;;;;;;;4.63;1.85;;;;;;;11.29;72.95;100124.69;5013646;28;20057;-64
2022/12/25 06:12:39;;;;;;;2.80;1.27;;;;;;;11.30;72.84;100127.16;5011390;28;20490;-64
2022/12/25 06:15:07;;;;;;;3.45;1.50;;;;;;;11.21;72.91;100122.72;5011796;28;20514;-65
2022/12/25 06:17:35;;;;;;;3.50;1.48;;;;;;;11.18;73.34;100124.22;5013319;28;20403;-65
2022/12/25 06:20:02;;;;;;;4.90;1.45;;;;;;;11.08;73.17;100124.53;5012196;28;20061;-64
2022/12/25 06:22:30;;;;;;;6.07;1.77;;;;;;;11.18;73.03;100129.78;5013374;28;20406;-65
2022/12/25 06:24:58;;;;;;;3.63;1.70;;;;;;;11.14;73.19;100126.81;5006956;28;20509;-64
2022/12/25 06:27:27;;;;;;;5.03;1.50;;;;;;;11.09;73.35;100120.63;5013119;28;20133;-64
2022/12/25 06:29:54;;;;;;;4.20;1.35;;;;;;;11.15;73.14;100122.09;5011035;28;20502;-65
2022/12/25 06:32:30;;;;;;;3.50;1.50;;;;;;;11.08;72.82;100113.38;5011669;28;20510;-66
2022/12/25 06:34:57;;;;;;;4.25;1.58;;;;;;;11.15;72.63;100108.16;5007152;28;20053;-65
2022/12/25 06:37:25;;;;;;;3.67;1.38;;;;;;;11.11;72.29;100101.59;5013207;28;20057;-64
2022/12/25 06:39:52;;;;;;;4.43;1.65;;;;;;;11.07;72.31;100107.00;5012155;28;20054;-65
2022/12/25 06:42:21;;;;;;;2.53;1.38;;;;;;;11.07;72.53;100097.81;5013482;28;20062;-64
2022/12/25 06:44:49;;;;;;;4.68;1.58;;;;;;;11.07;72.51;100087.47;4996118;28;20065;-65
2022/12/25 06:47:17;;;;;;;4.63;1.65;;;;;;;11.05;72.19;100075.03;5008315;28;20057;-65
2022/12/25 06:49:47;;;;;;;4.88;1.73;;;;;;;11.04;72.30;100065.81;5012985;28;20054;-64
2022/12/25 06:52:14;;;;;;;4.47;1.90;;;;;;;11.03;72.01;100069.78;5008674;28;20053;-64
2022/12/25 06:54:42;;;;;;;4.68;1.60;;;;;;;11.02;71.81;100061.72;5009195;28;20057;-65
2022/12/25 06:57:09;;;;;;;5.68;1.50;;;;;;;10.98;72.03;100067.13;5011536;28;20491;-65
2022/12/25 06:59:38;;;;;;;3.85;1.50;;;;;;;11.01;71.94;100065.69;5010760;28;20076;-64
2022/12/25 07:02:05;;;;;;;3.13;1.40;;;;;;;10.96;72.03;100073.06;5012340;28;20160;-64
2022/12/25 07:04:36;;;;;;;3.22;1.42;;;;;;;10.97;72.46;100065.50;5012499;28;20487;-64
2022/12/25 07:07:06;;;;;;;4.00;1.60;;;;;;;10.95;72.40;100067.78;5011507;28;20042;-64
2022/12/25 07:09:37;;;;;;;4.32;1.55;;;;;;;10.94;72.07;100064.19;5006706;28;20052;-65
2022/12/25 07:12:07;;;;;;;7.72;1.80;;;;;;;10.92;72.53;100058.13;5012786;28;20057;-65
2022/12/25 07:14:34;;;;;;;5.38;1.83;;;;;;;10.87;72.59;100066.63;5001186;28;20058;-64
2022/12/25 07:17:02;;;;;;;10.18;2.35;;;;;;;10.88;72.26;100068.28;5010789;28;20067;-65
2022/12/25 07:19:30;;;;;;;6.82;2.15;;;;;;;10.89;72.52;100064.34;5010528;28;20410;-64
2022/12/25 07:21:57;;;;;;;4.90;2.00;;;;;;;10.87;72.45;100055.50;5001372;28;20057;-65
2022/12/25 07:24:24;;;;;;;4.25;1.60;;;;;;;10.89;72.21;100055.16;5010786;28;20052;-64
2022/12/25 07:26:52;;;;;;;4.28;1.83;;;;;;;10.87;72.63;100044.34;5010052;28;20486;-65
2022/12/25 07:29:19;;;;;;;7.05;1.90;;;;;;;10.89;72.37;100042.06;5006056;28;20495;-64
2022/12/25 07:31:47;;;;;;;4.50;2.03;;;;;;;10.94;72.12;100027.13;5005209;28;20050;-64
2022/12/25 07:34:16;;;;;;;4.47;1.90;;;;;;;10.94;72.00;100019.63;5007338;28;20050;-65
2022/12/25 07:36:44;;;;;;;3.90;1.90;;;;;;;10.96;71.87;100020.09;5010152;28;20057;-64
2022/12/25 07:39:11;;;;;;;3.72;1.80;;;;;;;10.99;71.92;100020.59;5008217;28;20054;-63
2022/12/25 07:41:39;;;;;;;6.05;2.22;;;;;;;11.00;71.92;100041.72;5008715;28;20050;-64
2022/12/25 07:44:07;;;;;;;5.05;1.75;;;;;;;11.03;72.14;100046.66;5009302;28;20054;-64
2022/12/25 07:46:34;;;;;;;7.28;1.70;;;;;;;11.08;71.87;100024.19;5009643;28;20085;-64
2022/12/25 07:49:01;;;;;;;3.65;1.67;;;;;;;11.10;71.60;100013.53;5010706;28;20372;-64
2022/12/25 07:51:30;;;;;;;5.13;1.77;;;;;;;11.16;71.94;100023.38;5004365;28;20057;-61
2022/12/25 07:53:57;;;;;;;7.60;2.05;;;;;;;11.21;71.63;100017.59;5013777;28;20057;-60
2022/12/25 07:56:25;;;;;;;5.13;1.60;;;;;;;11.26;71.46;100025.81;5014192;28;20061;-61
2022/12/25 07:58:52;;;;;;;5.45;1.98;;;;;;;11.29;71.49;100019.56;5012949;28;20046;-61
2022/12/25 08:01:21;;;;;;;5.15;1.95;;;;;;;11.31;71.38;100011.69;5013952;28;20418;-64
2022/12/25 08:03:50;;;;;;;5.82;1.77;;;;;;;11.34;71.25;100010.22;5012149;28;20063;-64
2022/12/25 08:06:18;;;;;;;3.33;1.80;;;;;;;11.42;71.49;100003.78;5015165;28;20513;-62
2022/12/25 08:08:47;;;;;;;4.43;1.73;;;;;;;11.48;70.85;99985.72;5013731;28;20486;-60
2022/12/25 08:11:15;;;;;;;7.55;2.35;;;;;;;11.66;71.05;99988.50;5013089;28;20057;-63
2022/12/25 08:13:42;;;;;;;6.07;2.13;;;;;;;11.74;70.32;99991.25;5007133;28;20058;-61
2022/12/25 08:16:10;;;;;;;4.63;1.88;;;;;;;11.84;70.38;99981.66;4996170;28;20062;-60
2022/12/25 08:18:39;;;;;;;6.63;1.90;;;;;;;11.93;69.67;99979.69;4995822;28;20050;-61
2022/12/25 08:21:09;;;;;;;6.53;1.60;;;;;;;12.04;69.69;99980.13;4996098;28;20403;-60
2022/12/25 08:23:38;;;;;;;7.40;2.08;;;;;;;12.11;69.19;99986.00;4995699;28;20526;-60
2022/12/25 08:26:08;;;;;;;6.53;1.90;;;;;;;12.20;68.73;99994.34;5008138;28;20054;-62
2022/12/25 08:28:36;;;;;;;4.72;2.00;;;;;;;12.19;69.09;100001.88;5006120;28;20045;-62
2022/12/25 08:31:08;;;;;;;4.78;1.95;;;;;;;12.23;68.63;100006.81;5011107;28;20054;-62
2022/12/25 08:33:35;;;;;;;4.00;1.80;;;;;;;12.27;68.04;100000.22;5011504;28;20490;-60
2022/12/25 08:36:04;;;;;;;6.93;1.98;;;;;;;12.25;68.19;99998.91;5011477;28;20062;-61
2022/12/25 08:38:31;;;;;;;3.75;1.83;;;;;;;12.22;68.11;99994.00;5011028;28;20050;-62
2022/12/25 08:40:58;;;;;;;3.67;1.88;;;;;;;12.28;68.29;99989.84;5014094;28;20054;-61
2022/12/25 08:43:27;;;;;;;6.00;2.30;;;;;;;12.34;68.17;99982.91;5012488;28;20395;-62
2022/12/25 08:45:54;;;;;;;4.22;2.25;;;;;;;12.25;67.73;99980.19;5008477;28;20057;-61
2022/12/25 08:48:22;;;;;;;5.82;2.15;;;;;;;12.25;68.61;99976.56;5011967;28;20394;-62
2022/12/25 08:50:50;;;;;;;5.80;2.67;;;;;;;12.26;68.52;99969.81;5011064;28;20049;-61
2022/12/25 08:53:19;;;;;;;3.70;1.90;;;;;;;12.25;68.45;99974.59;5012550;28;20046;-61
2022/12/25 08:55:47;;;;;;;5.23;2.30;;;;;;;12.16;68.63;99977.44;5012397;28;20049;-62
2022/12/25 08:58:15;;;;;;;5.18;2.58;;;;;;;12.21;68.33;99962.47;5012086;28;20480;-63
2022/12/25 09:00:43;;;;;;;6.50;2.08;;;;;;;12.25;68.62;99952.25;5010069;28;20058;-61
2022/12/25 09:03:11;;;;;;;5.32;2.28;;;;;;;12.37;68.57;99945.94;5006714;28;20060;-62
2022/12/25 09:05:38;;;;;;;5.32;2.45;;;;;;;12.33;67.85;99972.91;5002539;28;20054;-60
2022/12/25 09:08:05;;;;;;;4.72;2.30;;;;;;;12.39;68.49;100002.28;5014070;28;20057;-64
2022/12/25 09:10:36;;;;;;;4.65;2.38;;;;;;;12.51;68.13;100009.91;5014309;28;20383;-64
2022/12/25 09:13:03;;;;;;;5.32;2.97;;;;;;;12.59;67.13;100017.41;5008019;28;20058;-64
2022/12/25 09:15:30;;;;;;;4.35;2.28;;;;;;;12.58;67.50;100022.19;5012451;28;20076;-64
2022/12/25 09:18:09;;;;;;;4.90;2.70;;;;;;;12.56;67.88;100021.72;5014067;28;20064;-64
2022/12/25 09:20:36;;;;;;;6.10;3.13;;;;;;;12.68;66.98;100012.59;5014406;28;20053;-61
2022/12/25 09:23:04;;;;;;;3.20;2.20;;;;;;;12.74;66.48;99993.63;5014222;28;20073;-61
2022/12/25 09:25:31;;;;;;;4.93;2.67;;;;;;;12.65;66.91;99976.13;5014088;28;20046;-60
2022/12/25 09:27:58;;;;;;;4.70;2.40;;;;;;;12.67;66.72;99971.03;5013457;28;20054;-60
2022/12/25 09:30:25;;;;;;;3.33;2.00;;;;;;;12.59;70.66;99956.75;5014109;28;20054;-62
2022/12/25 09:32:53;;;;;;;2.60;2.20;;;;;;;12.57;71.36;99945.09;5013715;28;20057;-61
2022/12/25 09:35:21;;;;;;;3.47;2.00;;;;;;;12.68;69.98;99942.75;5014078;28;20060;-61
2022/12/25 09:37:49;;;;;;;2.42;1.73;;;;;;;12.65;70.32;99945.41;5013556;28;20058;-61
2022/12/25 09:40:19;;;;;;;5.20;2.08;;;;;;;12.66;71.17;99933.88;5014062;28;20395;-61
2022/12/25 09:42:48;;;;;;;3.40;1.80;;;;;;;12.54;71.55;99943.00;5012031;28;20049;-61
2022/12/25 09:45:20;;;;;;;3.70;1.88;;;;;;;12.58;71.91;99960.72;5013789;28;20054;-61
2022/12/25 09:47:55;;;;;;;4.68;2.10;;;;;;;12.57;71.51;99987.03;5013856;28;20414;-60
2022/12/25 09:50:40;;;;;;;3.92;2.00;;;;;;;12.57;70.75;99975.84;5013677;28;20399;-60
2022/12/25 09:53:14;;;;;;;3.13;2.05;;;;;;;12.50;70.71;99969.19;5013908;28;20057;-61
2022/12/25 09:55:59;;;;;;;4.05;2.15;;;;;;;12.42;71.72;99984.84;5013515;28;20483;-61
2022/12/25 09:58:28;;;;;;;3.22;1.75;;;;;;;12.39;72.25;99964.00;5001527;28;20065;-61
2022/12/25 10:01:03;;;;;;;2.63;1.60;;;;;;;12.37;73.29;99971.88;4993524;28;20061;-61
2022/12/25 10:03:45;;;;;;;4.25;1.85;;;;;;;11.92;74.86;99989.22;4993961;28;20403;-61
2022/12/25 10:06:20;;;;;;;4.40;1.83;;;;;;;11.67;76.80;99996.50;4993679;28;20058;-61
2022/12/25 10:09:14;;;;;;;3.47;1.85;;;;;;;11.67;78.12;100007.66;4993307;28;20061;-62
2022/12/25 10:11:58;;;;;;;3.95;2.10;;;;;;;11.58;79.60;100018.84;4992097;28;20054;-61
2022/12/25 10:14:33;;;;;;;7.75;2.42;;;;;;;11.34;82.07;100005.47;4993662;28;20061;-60
2022/12/25 10:17:14;;;;;;;8.75;2.40;;;;;;;11.16;85.38;100007.44;4993696;28;20061;-60
2022/12/25 10:19:49;;;;;;;4.90;2.55;;;;;;;11.01;87.33;100004.38;4993417;28;20046;-60
2022/12/25 10:22:34;;;;;;;5.25;2.20;;;;;;;10.99;87.03;99995.50;4993855;28;20061;-62
2022/12/25 10:25:02;;;;;;;4.70;2.40;;;;;;;10.96;87.27;99986.66;4993666;28;20057;-62
2022/12/25 10:27:34;;;;;;;5.50;3.08;;;;;;;11.12;86.91;100000.09;4993889;28;20396;-62
2022/12/25 10:30:05;;;;;;;6.70;2.22;;;;;;;11.14;86.30;99998.59;4993366;28;20054;-62
2022/12/25 10:32:33;;;;;;;5.07;2.28;;;;;;;11.14;86.86;99979.09;4993344;28;20058;-62
2022/12/25 10:35:01;;;;;;;7.22;2.47;;;;;;;11.15;86.94;99971.56;4993106;28;20494;-62
2022/12/25 10:37:33;;;;;;;3.60;2.25;;;;;;;10.95;87.53;99961.91;4993223;28;20431;-62
2022/12/25 10:40:00;;;;;;;4.82;2.20;;;;;;;10.97;88.54;99949.28;4993530;28;20050;-62
2022/12/25 10:42:35;;;;;;;6.28;2.72;;;;;;;11.10;90.00;99935.50;4992891;28;20423;-61
2022/12/25 10:45:06;;;;;;;4.95;2.78;;;;;;;11.15;90.44;99921.41;4993353;28;20440;-61
2022/12/25 10:47:39;;;;;;;5.40;2.70;;;;;;;11.21;90.60;99920.03;4993404;28;20065;-62
2022/12/25 10:50:11;;;;;;;10.02;3.53;;;;;;;11.35;91.10;99909.50;4993225;28;20050;-61
2022/12/25 10:52:55;;;;;;;4.78;2.45;;;;;;;11.44;90.72;99923.41;4993429;28;20080;-62
2022/12/25 10:55:23;;;;;;;5.13;2.92;;;;;;;11.55;90.82;99921.09;5009749;28;20050;-61
2022/12/25 10:57:50;;;;;;;4.53;2.28;;;;;;;11.69;89.31;99912.47;5000364;28;20057;-61
2022/12/25 11:00:22;;;;;;;5.40;2.65;;;;;;;11.74;87.94;99910.31;5012547;28;20050;-61
2022/12/25 11:02:50;;;;;;;8.68;2.05;;;;;;;11.61;86.67;99916.13;5012312;28;20060;-61
2022/12/25 11:05:26;;;;;;;5.72;2.17;;;;;;;11.59;86.74;99913.69;5012418;28;20058;-62
2022/12/25 11:07:57;;;;;;;2.42;1.73;;;;;;;11.64;86.66;99919.06;5012389;28;20050;-61
2022/12/25 11:10:27;;;;;;;2.80;1.67;;;;;;;11.71;87.54;99910.97;5000344;28;20053;-61
2022/12/25 11:12:54;;;;;;;;;;;;;;;11.77;87.06;99903.25;4993354;28;20134;-61
2022/12/25 11:15:34;;;;;;;5.00;2.30;;;;;;;11.84;86.14;99905.50;4992683;28;20370;-61
2022/12/25 11:18:02;;;;;;;5.65;3.13;;;;;;;11.95;86.54;99895.66;4992977;28;20054;-61
2022/12/25 11:20:31;;;;;;;5.60;2.17;;;;;;;12.03;86.21;99889.16;4992955;28;20061;-61
2022/12/25 11:22:59;;;;;;;4.47;2.40;;;;;;;12.05;85.50;99886.84;4992938;28;20403;-62
2022/12/25 11:25:28;;;;;;;4.28;2.38;;;;;;;12.15;85.62;99885.63;4993284;28;20519;-61
2022/12/25 11:28:00;;;;;;;7.25;3.15;;;;;;;12.26;85.74;99891.63;4994499;28;20061;-61
2022/12/25 11:30:29;;;;;;;6.57;3.63;;;;;;;12.32;86.26;99879.09;4996617;28;20483;-61
2022/12/25 11:33:00;;;;;;;11.70;7.32;;;;;;;12.44;85.90;99873.59;4996171;28;20066;-62
2022/12/25 11:35:31;;;;;;;13.43;9.55;;;;;;;12.49;86.32;99878.94;4996699;28;20388;-62
2022/12/25 11:38:00;;;;;;;18.52;11.85;;;;;;;12.54;85.61;99875.97;4996796;28;20074;-62
2022/12/25 11:40:34;;;;;;;12.45;8.15;;;;;;;12.60;85.52;99868.19;4996918;28;20057;-61
2022/12/25 11:43:10;;;;;;;7.95;5.50;;;;;;;12.60;84.87;99857.03;4996332;28;20050;-61
2022/12/25 11:45:41;;;;;;;8.73;5.05;;;;;;;12.65;85.50;99848.41;4996734;28;20513;-61
2022/12/25 11:48:15;;;;;;;3.65;2.15;;;;;;;12.65;84.35;99842.03;4996483;28;20050;-61
2022/12/25 11:50:48;;;;;;;9.73;5.00;;;;;;;12.68;84.57;99835.72;4996447;28;20476;-62
2022/12/25 11:53:20;;;;;;;5.80;3.10;;;;;;;12.66;83.05;99816.53;5002876;28;20061;-62
2022/12/25 11:55:53;;;;;;;5.47;3.13;;;;;;;12.71;83.80;99804.31;5015682;28;20050;-61
2022/12/25 11:58:24;;;;;;;5.47;2.35;;;;;;;12.69;84.29;99798.25;5015883;28;20061;-62
2022/12/25 12:00:55;;;;;;;2.65;1.50;;;;;;;12.67;82.54;99776.25;5015978;28;20049;-62
2022/12/25 12:03:28;;;;;;;1.83;1.20;;;;;;;12.56;80.99;99761.91;5015295;28;20503;-62
2022/12/25 12:05:57;;;;;;;3.08;1.10;;;;;;;12.39;80.06;99767.69;5015417;28;20062;-63
2022/12/25 12:08:26;;;;;;;3.28;1.20;;;;;;;12.41;80.39;99765.34;4998369;28;20065;-62
2022/12/25 12:11:14;;;;;;;2.10;1.00;;;;;;;12.42;79.83;99766.97;4996168;28;20051;-62
2022/12/25 12:14:16;;;;;;;1.40;1.00;;;;;;;12.39;80.04;99765.69;5002049;28;20057;-62
2022/12/25 12:16:43;;;;;;;1.75;1.00;;;;;;;12.22;80.13;99779.00;4972528;28;20050;-62
2022/12/25 12:19:12;;;;;;;1.85;1.00;;;;;;;12.28;79.63;99772.03;5006020;28;20049;-61
2022/12/25 12:21:42;;;;;;;1.30;0.88;;;;;;;12.24;79.76;99765.50;5014554;28;20054;-61
2022/12/25 12:24:16;;;;;;;2.17;0.98;;;;;;;12.25;81.01;99756.00;5014394;28;20065;-61
2022/12/25 12:26:46;;;;;;;1.80;0.90;;;;;;;12.30;80.80;99750.97;5015616;28;20164;-62
2022/12/25 12:29:23;;;;;;;;;;;;;;;12.33;79.32;99749.50;5015710;28;20058;-61
2022/12/25 12:31:51;;;;;;;1.77;1.00;;;;;;;12.27;79.88;99746.09;5014307;28;19922;-62
2022/12/25 12:34:24;;;;;;;1.50;0.95;;;;;;;12.30;79.43;99742.59;5013581;28;20050;-61
2022/12/25 12:37:02;;;;;;;1.83;1.17;;;;;;;12.33;80.32;99741.94;5014594;28;20061;-61
2022/12/25 12:39:35;;;;;;;3.00;1.35;;;;;;;12.38;80.18;99732.53;5014496;28;20054;-62
2022/12/25 12:42:11;;;;;;;3.15;1.55;;;;;;;12.49;80.74;99725.31;5015024;28;20498;-62
2022/12/25 12:44:39;;;;;;;2.90;1.30;;;;;;;12.45;81.95;99726.38;5014971;28;20053;-62
2022/12/25 12:47:06;;;;;;;1.90;1.30;;;;;;;12.33;82.12;99738.34;5013712;28;20530;-61
2022/12/25 12:49:33;;;;;;;12.45;2.13;;;;;;;12.09;84.81;99730.66;5015088;28;20413;-61
2022/12/25 12:52:06;;;;;;;3.90;2.38;;;;;;;11.76;89.75;99729.47;5013736;28;20142;-62
2022/12/25 12:54:54;;;;;;;5.05;2.17;;;;;;;11.83;90.44;99726.13;5012670;28;20049;-61
2022/12/25 12:57:24;;;;;;;4.57;2.47;;;;;;;11.92;88.64;99724.09;5014987;28;20058;-61
2022/12/25 12:59:51;;;;;;;;;;;;;;;11.94;86.86;99726.53;5015246;28;20058;-61
2022/12/25 13:02:44;;;;;;;4.75;2.90;;;;;;;11.77;84.84;99708.75;5013951;28;19921;-61
2022/12/25 13:05:20;;;;;;;2.80;2.25;;;;;;;11.93;84.42;99705.38;5014826;28;20057;-61
2022/12/25 13:07:56;;;;;;;5.00;3.33;;;;;;;12.08;85.32;99704.75;5009873;28;20069;-61
2022/12/25 13:10:28;;;;;;;5.10;3.67;;;;;;;12.11;84.68;99715.19;4995289;28;20051;-61
2022/12/25 13:12:59;;;;;;;4.60;3.60;;;;;;;12.18;84.49;99700.72;5001821;28;20053;-61
2022/12/25 13:15:29;;;;;;;7.18;4.95;;;;;;;12.28;85.62;99699.44;5014491;28;20057;-61
2022/12/25 13:18:02;;;;;;;5.22;4.05;;;;;;;12.32;85.06;99694.78;5014212;28;20053;-61
2022/12/25 13:20:39;;;;;;;7.75;4.45;;;;;;;12.38;84.15;99694.22;5014143;28;20050;-61
2022/12/25 13:23:14;;;;;;;8.57;5.70;;;;;;;12.48;83.97;99681.81;5013105;28;20065;-61
2022/12/25 13:25:52;;;;;;;7.05;5.07;;;;;;;12.56;84.95;99678.09;5014210;28;20049;-61
2022/12/25 13:28:24;;;;;;;7.55;5.72;;;;;;;12.59;84.18;99679.38;5014550;28;20064;-61
2022/12/25 13:30:51;;;;;;;7.80;5.50;;;;;;;12.55;83.44;99673.66;5014249;28;20050;-62